Time;durP1;ratioP1;P1;durP2;ratioP2;P2;SDS_P1;SDS_P2;PMS_P1;PMS_P2;Temp;Humidity;BMP_temperature;BMP_pressure;BME280_temperature;BME280_humidity;BME280_pressure;Samples;Min_cycle;Max_cycle;Signal;HPM_P1;HPM_P2
2022/03/28 17:55:50;;;;;;;15.20;7.22;;;;;;;13.66;37.62;99009.69;5058441;27;20770;-85
2022/03/28 17:58:16;;;;;;;12.35;6.68;;;;;;;13.63;39.92;99024.59;5023368;28;20046;-85
2022/03/28 18:00:47;;;;;;;13.80;7.32;;;;;;;13.51;39.38;99015.34;5026106;28;20076;-85
2022/03/28 18:03:14;;;;;;;13.63;6.35;;;;;;;13.45;38.14;98995.16;5022771;28;20061;-85
2022/03/28 18:05:42;;;;;;;14.25;6.10;;;;;;;13.60;38.48;99020.38;5023696;28;20073;-86
2022/03/28 18:08:09;;;;;;;13.80;6.05;;;;;;;13.55;38.23;99024.78;5025382;28;20132;-85
2022/03/28 18:10:36;;;;;;;6.97;4.47;;;;;;;13.16;38.71;98994.44;5019841;28;20168;-85
2022/03/28 18:13:04;;;;;;;12.93;5.30;;;;;;;13.13;40.32;99021.28;5025723;28;20048;-86
2022/03/28 18:15:31;;;;;;;10.07;5.45;;;;;;;12.97;39.38;98990.59;5025112;28;20076;-85
2022/03/28 18:17:59;;;;;;;9.80;5.70;;;;;;;12.88;39.43;99002.75;5020093;28;20049;-86
2022/03/28 18:20:25;;;;;;;11.10;5.10;;;;;;;12.74;39.96;98993.66;5013636;28;20141;-85
2022/03/28 18:22:52;;;;;;;12.13;5.03;;;;;;;12.66;42.14;99019.22;5022377;28;20042;-84
2022/03/28 18:25:25;;;;;;;11.88;5.25;;;;;;;12.35;44.56;99000.59;5021675;28;20099;-84
2022/03/28 18:27:52;;;;;;;9.68;6.00;;;;;;;12.42;44.56;99017.84;5020263;28;20050;-84
2022/03/28 18:30:21;;;;;;;15.20;5.75;;;;;;;12.29;45.42;99015.88;5021108;28;20050;-84
2022/03/28 18:32:48;;;;;;;9.82;5.05;;;;;;;12.15;45.97;99016.78;5016746;28;20049;-84
2022/03/28 18:35:17;;;;;;;10.63;5.03;;;;;;;11.89;46.45;98998.34;5020583;28;20045;-83
2022/03/28 18:37:45;;;;;;;9.38;5.43;;;;;;;11.87;47.26;99014.91;5014921;28;20060;-84
2022/03/28 18:40:14;;;;;;;9.38;5.00;;;;;;;11.77;45.27;99001.63;5023417;28;20053;-85
2022/03/28 18:42:40;;;;;;;8.55;4.47;;;;;;;11.79;44.81;99012.31;5019726;28;20045;-84
2022/03/28 18:45:08;;;;;;;9.75;4.20;;;;;;;11.83;45.37;99038.97;5015734;28;20056;-84
2022/03/28 18:47:38;;;;;;;11.10;4.65;;;;;;;11.73;46.01;99019.41;5019637;28;20077;-83
2022/03/28 18:50:08;;;;;;;14.38;4.93;;;;;;;11.63;47.04;99027.88;5016875;28;20554;-84
2022/03/28 18:52:36;;;;;;;7.93;4.45;;;;;;;11.44;47.35;99009.47;5027278;28;20080;-84
2022/03/28 18:55:04;;;;;;;10.52;4.60;;;;;;;11.27;47.34;98995.28;5018033;28;20073;-84
2022/03/28 18:57:31;;;;;;;9.63;4.80;;;;;;;11.22;48.09;98993.16;5021764;28;20092;-84
2022/03/28 18:59:58;;;;;;;9.10;5.30;;;;;;;11.28;47.80;99019.56;5019319;28;20045;-84
2022/03/28 19:02:25;;;;;;;10.10;5.53;;;;;;;11.24;48.85;99025.59;5013565;28;20053;-84
2022/03/28 19:04:56;;;;;;;8.38;4.85;;;;;;;11.01;49.64;99006.72;5015345;28;20496;-85
2022/03/28 19:07:23;;;;;;;9.50;4.78;;;;;;;11.04;49.21;99023.50;5007454;28;20490;-84
2022/03/28 19:09:50;;;;;;;11.13;4.28;;;;;;;10.97;48.63;99018.00;5009361;28;20409;-84
2022/03/28 19:12:16;;;;;;;8.18;4.07;;;;;;;10.81;48.52;98993.75;5015949;28;20049;-84
2022/03/28 19:14:46;;;;;;;9.48;4.93;;;;;;;10.85;49.24;99011.34;5009562;28;20068;-84
2022/03/28 19:17:12;;;;;;;6.63;4.17;;;;;;;10.77;49.30;99022.34;5009326;28;20109;-85
2022/03/28 19:19:39;;;;;;;9.80;4.70;;;;;;;10.65;50.51;99015.69;5000752;28;20311;-84
2022/03/28 19:22:07;;;;;;;7.32;4.55;;;;;;;10.64;50.28;99017.56;5006261;28;20588;-84
2022/03/28 19:24:36;;;;;;;7.95;4.70;;;;;;;10.42;50.57;98994.91;5006724;28;20517;-84
2022/03/28 19:27:05;;;;;;;8.63;5.10;;;;;;;10.29;52.13;98984.66;5010425;28;20061;-84
2022/03/28 19:29:32;;;;;;;14.18;4.85;;;;;;;10.28;51.31;99008.28;4997667;28;20058;-85
2022/03/28 19:32:00;;;;;;;16.27;5.88;;;;;;;10.21;51.64;98999.19;5001585;28;20070;-85
2022/03/28 19:34:26;;;;;;;9.93;4.60;;;;;;;10.24;52.46;98997.97;5006779;28;20099;-85
2022/03/28 19:36:53;;;;;;;6.43;4.50;;;;;;;10.16;52.49;99007.06;5007128;28;20056;-84
2022/03/28 19:39:22;;;;;;;13.50;4.85;;;;;;;9.77;53.20;98983.69;5002647;28;20133;-85
2022/03/28 19:41:49;;;;;;;12.07;4.65;;;;;;;9.74;53.46;98997.63;5003410;28;20101;-85
2022/03/28 19:44:19;;;;;;;10.38;4.85;;;;;;;9.63;54.12;99007.03;4996922;28;20481;-84
2022/03/28 19:46:46;;;;;;;14.75;5.35;;;;;;;9.70;54.56;99005.28;5002771;28;20568;-84
2022/03/28 19:49:13;;;;;;;10.25;5.20;;;;;;;9.69;54.94;99014.44;5009473;28;20485;-85
2022/03/28 19:51:40;;;;;;;13.95;5.97;;;;;;;9.56;54.54;99003.38;5021187;28;20124;-84
2022/03/28 19:54:07;;;;;;;11.50;5.60;;;;;;;9.36;55.12;98987.59;5004860;28;20050;-85
2022/03/28 19:56:37;;;;;;;12.90;5.05;;;;;;;9.47;55.14;98999.88;5001967;28;20058;-84
2022/03/28 19:59:07;;;;;;;15.13;5.30;;;;;;;9.37;55.27;98999.28;5014225;28;20045;-85
2022/03/28 20:01:35;;;;;;;8.68;5.13;;;;;;;9.09;55.39;98996.25;5013827;28;20054;-85
2022/03/28 20:04:02;;;;;;;11.40;5.75;;;;;;;8.98;56.10;99001.06;4995138;28;20042;-85
2022/03/28 20:06:31;;;;;;;13.20;5.90;;;;;;;8.80;57.72;99023.00;5013226;28;20053;-85
2022/03/28 20:08:57;;;;;;;13.98;6.32;;;;;;;8.72;56.94;98989.69;4999311;28;20085;-84
2022/03/28 20:11:24;;;;;;;14.57;6.82;;;;;;;8.65;57.69;98990.38;5007194;28;20065;-85
2022/03/28 20:13:52;;;;;;;15.55;6.65;;;;;;;8.76;58.14;99005.44;4991339;28;20057;-85
2022/03/28 20:16:20;;;;;;;12.10;5.70;;;;;;;8.57;56.97;98973.34;5003933;28;20378;-85
2022/03/28 20:18:47;;;;;;;10.10;5.88;;;;;;;8.57;56.44;99000.44;5012746;28;20084;-85
2022/03/28 20:21:13;;;;;;;10.45;5.97;;;;;;;8.58;56.30;98996.69;5006006;28;20041;-85
2022/03/28 20:23:40;;;;;;;14.38;6.93;;;;;;;8.48;56.34;98984.19;4996582;28;20045;-85
2022/03/28 20:26:07;;;;;;;14.98;5.55;;;;;;;8.30;56.50;98979.00;5016070;28;20136;-84
2022/03/28 20:28:35;;;;;;;16.13;6.13;;;;;;;8.38;57.34;98982.69;5009577;28;20409;-85
2022/03/28 20:31:04;;;;;;;11.32;6.07;;;;;;;8.27;56.53;98975.78;5011546;28;20053;-85
2022/03/28 20:33:31;;;;;;;15.45;6.18;;;;;;;8.39;55.42;98992.53;5003248;28;20046;-85
2022/03/28 20:35:58;;;;;;;10.23;5.68;;;;;;;8.29;56.08;98971.88;4993599;28;20046;-85
2022/03/28 20:38:24;;;;;;;9.10;5.05;;;;;;;8.35;56.12;98967.63;5006612;28;20050;-85
2022/03/28 20:40:52;;;;;;;12.23;5.45;;;;;;;8.49;56.48;98982.31;5011309;28;20100;-85
2022/03/28 20:43:20;;;;;;;10.30;5.88;;;;;;;8.29;57.21;98973.75;4993844;28;20476;-84
2022/03/28 20:45:47;;;;;;;10.05;5.43;;;;;;;8.34;58.16;98984.91;5011572;28;20081;-85
2022/03/28 20:48:15;;;;;;;21.40;7.40;;;;;;;8.14;58.55;98957.38;5011150;28;20552;-85
2022/03/28 20:50:44;;;;;;;15.35;6.53;;;;;;;8.07;58.83;98951.81;5003431;28;20081;-85
2022/03/28 20:53:12;;;;;;;12.70;5.57;;;;;;;8.26;58.94;98976.81;5003782;28;20061;-85
2022/03/28 20:55:39;;;;;;;13.23;6.00;;;;;;;8.05;60.53;98964.69;5005468;28;20077;-85
2022/03/28 20:58:07;;;;;;;13.07;5.35;;;;;;;8.06;60.31;98954.72;5009090;28;20441;-85
2022/03/28 21:00:34;;;;;;;12.57;5.35;;;;;;;7.94;60.91;98944.25;5001839;28;20064;-85
2022/03/28 21:03:01;;;;;;;11.75;5.63;;;;;;;7.90;61.23;98947.47;5009178;28;20056;-85
2022/03/28 21:05:29;;;;;;;13.88;6.15;;;;;;;8.00;61.76;98963.53;5001023;28;20046;-85
2022/03/28 21:07:57;;;;;;;12.73;6.80;;;;;;;7.77;62.07;98939.91;5009063;28;20129;-85
2022/03/28 21:10:25;;;;;;;29.85;12.10;;;;;;;7.77;61.86;98943.44;5015322;28;20061;-85
2022/03/28 21:12:53;;;;;;;33.63;12.45;;;;;;;7.60;62.26;98929.09;5008372;28;20136;-85
2022/03/28 21:15:21;;;;;;;33.33;12.70;;;;;;;7.69;61.28;98951.56;5006360;28;20042;-84
2022/03/28 21:17:48;;;;;;;29.75;11.18;;;;;;;7.57;61.37;98944.81;5010758;28;20089;-85
2022/03/28 21:20:17;;;;;;;26.88;10.75;;;;;;;7.38;62.50;98930.66;5016478;28;20057;-85
2022/03/28 21:22:46;;;;;;;22.63;10.32;;;;;;;7.40;62.84;98934.00;4990369;28;20050;-85
2022/03/28 21:25:12;;;;;;;25.20;10.10;;;;;;;7.24;63.67;98915.09;5022183;28;20049;-84
2022/03/28 21:27:39;;;;;;;14.25;7.30;;;;;;;7.30;63.57;98927.09;5002074;28;20061;-83
2022/03/28 21:30:08;;;;;;;11.70;6.35;;;;;;;7.42;64.98;98939.25;5006949;28;20148;-84
2022/03/28 21:32:35;;;;;;;13.95;5.85;;;;;;;7.15;66.11;98908.88;5007935;28;20053;-84
2022/03/28 21:35:03;;;;;;;15.93;5.95;;;;;;;7.09;66.52;98923.91;5013718;28;20042;-83
2022/03/28 21:37:30;;;;;;;19.33;6.70;;;;;;;6.94;66.59;98922.88;5004901;28;20053;-84
2022/03/28 21:40:01;;;;;;;10.18;6.18;;;;;;;7.06;67.05;98934.19;5004164;28;20057;-83
2022/03/28 21:42:32;;;;;;;17.15;7.20;;;;;;;6.92;66.81;98908.66;5002149;28;20058;-84
2022/03/28 21:44:58;;;;;;;16.63;6.70;;;;;;;6.88;67.25;98916.28;5005354;28;20053;-83
2022/03/28 21:47:25;;;;;;;12.27;6.65;;;;;;;6.99;67.53;98938.59;5011165;28;20077;-84
2022/03/28 21:49:56;;;;;;;18.70;8.98;;;;;;;6.96;67.83;98931.66;5010550;28;20072;-84
2022/03/28 21:52:27;;;;;;;26.30;10.85;;;;;;;6.95;68.58;98926.41;5005752;28;20050;-83
2022/03/28 21:54:54;;;;;;;32.47;13.52;;;;;;;6.93;67.52;98923.88;5020930;28;20099;-83
2022/03/28 21:57:25;;;;;;;33.40;14.38;;;;;;;6.66;67.15;98908.81;5015632;28;20497;-83
2022/03/28 21:59:55;;;;;;;25.38;12.73;;;;;;;6.63;68.62;98903.75;5002630;28;20445;-83
2022/03/28 22:02:22;;;;;;;33.65;12.68;;;;;;;6.81;67.18;98926.06;5000745;28;20065;-83
2022/03/28 22:04:49;;;;;;;49.20;21.38;;;;;;;6.70;67.43;98915.59;5009174;28;20476;-83
2022/03/28 22:07:15;;;;;;;40.42;16.60;;;;;;;6.59;68.16;98905.91;5009904;28;20057;-83
2022/03/28 22:09:42;;;;;;;35.40;14.60;;;;;;;6.48;67.87;98909.78;5007262;28;20076;-83
2022/03/28 22:12:09;;;;;;;37.08;15.27;;;;;;;6.35;68.85;98902.16;4996326;28;20058;-83
2022/03/28 22:14:37;;;;;;;32.83;13.55;;;;;;;6.44;68.55;98899.47;4997641;28;20107;-83
2022/03/28 22:17:07;;;;;;;34.33;14.07;;;;;;;6.47;69.11;98894.56;5008391;28;20416;-83
2022/03/28 22:19:34;;;;;;;30.23;13.13;;;;;;;6.27;69.43;98891.31;5001399;28;20100;-83
2022/03/28 22:22:01;;;;;;;35.20;14.10;;;;;;;6.39;69.30;98902.66;5009091;28;20140;-84
2022/03/28 22:24:27;;;;;;;29.27;13.93;;;;;;;6.31;70.59;98914.28;5002497;28;20100;-84
2022/03/28 22:26:54;;;;;;;19.73;9.20;;;;;;;6.18;73.59;98897.72;4996507;28;20057;-84
2022/03/28 22:29:21;;;;;;;29.67;13.02;;;;;;;6.26;72.81;98899.59;5004735;28;20386;-84
2022/03/28 22:31:50;;;;;;;36.53;14.48;;;;;;;6.07;72.79;98889.91;4992775;28;20073;-83
2022/03/28 22:34:19;;;;;;;28.17;11.90;;;;;;;5.97;72.48;98873.84;4996324;28;20081;-84
2022/03/28 22:36:49;;;;;;;27.77;11.85;;;;;;;5.90;72.39;98873.63;4992071;28;20097;-84
2022/03/28 22:39:15;;;;;;;26.65;11.73;;;;;;;5.93;73.24;98881.41;4998162;28;20045;-84
2022/03/28 22:41:42;;;;;;;22.35;10.23;;;;;;;6.06;73.03;98889.06;5006813;28;20082;-84
2022/03/28 22:44:09;;;;;;;21.67;10.57;;;;;;;5.95;74.51;98881.25;4998047;28;20073;-83
2022/03/28 22:46:36;;;;;;;23.70;10.77;;;;;;;5.84;73.52;98852.66;5012764;28;20046;-84
2022/03/28 22:49:04;;;;;;;29.08;10.45;;;;;;;5.88;73.30;98862.13;5013409;28;20064;-84
2022/03/28 22:51:31;;;;;;;20.17;9.90;;;;;;;5.81;74.04;98863.78;5010463;28;20378;-84
2022/03/28 22:53:58;;;;;;;22.23;9.30;;;;;;;5.84;73.10;98866.16;5011835;28;20482;-84
2022/03/28 22:56:24;;;;;;;21.83;10.18;;;;;;;5.81;73.41;98853.88;5003273;28;20069;-84
2022/03/28 22:58:51;;;;;;;20.50;9.25;;;;;;;5.78;74.18;98867.69;5002521;28;20075;-84
2022/03/28 23:01:18;;;;;;;16.52;8.00;;;;;;;5.68;74.16;98854.28;5009823;28;20478;-84
2022/03/28 23:03:45;;;;;;;20.65;8.13;;;;;;;5.68;74.55;98865.09;5008523;28;20045;-84
2022/03/28 23:06:15;;;;;;;18.80;9.20;;;;;;;5.59;76.41;98863.34;5007453;28;20046;-84
2022/03/28 23:08:42;;;;;;;21.45;8.20;;;;;;;5.68;76.42;98861.56;5004768;28;20728;-84
2022/03/28 23:11:08;;;;;;;16.55;8.30;;;;;;;5.61;76.22;98868.59;5011626;28;20069;-84
2022/03/28 23:13:35;;;;;;;21.30;9.30;;;;;;;5.51;78.52;98866.03;5007600;28;20046;-84
2022/03/28 23:16:02;;;;;;;17.90;8.05;;;;;;;5.68;77.55;98873.19;5010516;28;20046;-84
2022/03/28 23:18:32;;;;;;;19.33;9.60;;;;;;;5.49;78.18;98851.84;5006563;28;20093;-84
2022/03/28 23:20:59;;;;;;;20.02;9.20;;;;;;;5.41;78.12;98863.41;5001604;28;20092;-85
2022/03/28 23:23:27;;;;;;;16.80;8.60;;;;;;;5.31;78.69;98855.47;5017689;28;20065;-84
2022/03/28 23:25:53;;;;;;;21.38;9.98;;;;;;;5.33;79.12;98876.84;5026591;28;20056;-84
2022/03/28 23:28:21;;;;;;;15.55;9.70;;;;;;;5.26;78.56;98865.00;5021571;28;20049;-84
2022/03/28 23:30:48;;;;;;;20.83;9.80;;;;;;;5.25;77.27;98872.22;4996884;28;20178;-84
2022/03/28 23:33:15;;;;;;;22.45;9.60;;;;;;;5.14;78.52;98865.25;5003449;28;20049;-84
2022/03/28 23:35:42;;;;;;;17.80;9.20;;;;;;;5.11;80.04;98870.13;5005067;28;20061;-84
2022/03/28 23:38:09;;;;;;;15.02;8.70;;;;;;;5.05;79.70;98850.03;5010992;28;20528;-84
2022/03/28 23:40:37;;;;;;;14.70;8.35;;;;;;;5.12;80.28;98858.34;5008492;28;20061;-84
2022/03/28 23:43:04;;;;;;;17.08;8.88;;;;;;;5.04;81.18;98860.97;5013610;28;20053;-84
2022/03/28 23:45:31;;;;;;;14.90;8.10;;;;;;;4.90;80.65;98841.69;5001018;28;20050;-84
2022/03/28 23:47:57;;;;;;;24.48;9.52;;;;;;;4.85;79.88;98822.47;5001615;28;20053;-84
2022/03/28 23:50:24;;;;;;;21.25;9.18;;;;;;;4.86;79.40;98828.69;5001415;28;20109;-84
2022/03/28 23:52:51;;;;;;;17.83;8.70;;;;;;;4.99;80.05;98853.38;5025759;28;20061;-84
2022/03/28 23:55:19;;;;;;;26.65;9.90;;;;;;;4.94;79.38;98843.06;5020383;28;20053;-84
2022/03/28 23:57:47;;;;;;;15.43;8.25;;;;;;;4.98;79.06;98835.50;5008580;28;20415;-84
